createdAt,value
2018-07-28T00:00:29.446Z,6.03
2018-07-28T00:02:58.543Z,5.73
2018-07-28T00:05:27.935Z,6.22
2018-07-28T00:07:57.001Z,6.53
2018-07-28T00:10:26.078Z,6.90
2018-07-28T00:12:55.187Z,8.17
2018-07-28T00:15:24.380Z,6.30
2018-07-28T00:17:53.538Z,9.23
2018-07-28T00:20:22.751Z,5.93
2018-07-28T00:22:51.876Z,8.53
2018-07-28T00:25:21.066Z,6.17
2018-07-28T00:27:50.262Z,6.47
2018-07-28T00:30:26.352Z,6.50
2018-07-28T00:32:55.446Z,7.20
2018-07-28T00:35:24.527Z,6.40
2018-07-28T00:37:53.626Z,6.60
2018-07-28T00:40:22.719Z,6.10
2018-07-28T00:42:52.981Z,7.23
2018-07-28T00:45:22.178Z,6.13
2018-07-28T00:47:51.399Z,7.57
2018-07-28T00:50:20.522Z,9.60
2018-07-28T00:52:49.674Z,7.20
2018-07-28T00:55:18.836Z,7.93
2018-07-28T00:57:48.043Z,6.70
2018-07-28T01:00:17.418Z,8.83
2018-07-28T01:02:46.622Z,8.57
2018-07-28T01:05:15.906Z,8.47
2018-07-28T01:07:44.983Z,10.60
2018-07-28T01:10:14.198Z,7.62
2018-07-28T01:12:43.288Z,9.33
2018-07-28T01:15:13.251Z,7.17
2018-07-28T01:17:42.435Z,7.27
2018-07-28T01:20:12.186Z,8.43
2018-07-28T01:22:41.593Z,8.53
2018-07-28T01:25:11.587Z,7.23
2018-07-28T01:27:41.364Z,8.07
2018-07-28T01:30:27.472Z,6.93
2018-07-28T01:32:57.123Z,8.13
2018-07-28T01:35:26.354Z,7.37
2018-07-28T01:37:55.556Z,8.00
2018-07-28T01:40:24.784Z,9.83
2018-07-28T01:42:53.942Z,10.30
2018-07-28T01:45:23.044Z,8.43
2018-07-28T01:47:52.172Z,6.90
2018-07-28T01:50:21.270Z,7.20
2018-07-28T01:52:50.676Z,7.63
2018-07-28T01:55:19.782Z,7.37
2018-07-28T01:57:48.935Z,9.00
2018-07-28T02:00:19.506Z,7.50
2018-07-28T02:02:48.805Z,7.73
2018-07-28T02:05:17.906Z,9.57
2018-07-28T02:07:47.047Z,6.93
2018-07-28T02:10:16.409Z,7.10
2018-07-28T02:12:45.660Z,7.23
2018-07-28T02:15:14.766Z,7.10
2018-07-28T02:17:43.946Z,7.80
2018-07-28T02:20:13.056Z,7.23
2018-07-28T02:22:42.259Z,7.50
2018-07-28T02:25:11.601Z,6.93
2018-07-28T02:27:40.780Z,7.40
2018-07-28T02:30:10.706Z,7.60
2018-07-28T02:32:39.938Z,10.37
2018-07-28T02:35:09.301Z,7.43
2018-07-28T02:37:38.505Z,7.27
2018-07-28T02:40:07.517Z,7.67
2018-07-28T02:42:36.632Z,6.97
2018-07-28T02:45:06.581Z,7.33
2018-07-28T02:47:35.688Z,8.50
2018-07-28T02:50:05.999Z,21.27
2018-07-28T02:52:35.255Z,73.80
2018-07-28T02:55:04.765Z,34.57
2018-07-28T02:57:33.880Z,23.97
2018-07-28T03:00:03.035Z,17.60
2018-07-28T03:02:32.167Z,14.80
2018-07-28T03:05:01.286Z,10.93
2018-07-28T03:07:30.558Z,11.47
2018-07-28T03:09:59.748Z,11.17
2018-07-28T03:12:28.861Z,13.23
2018-07-28T03:14:57.963Z,11.37
2018-07-28T03:17:27.076Z,9.10
2018-07-28T03:19:56.348Z,8.87
2018-07-28T03:22:25.474Z,8.20
2018-07-28T03:24:55.018Z,7.93
2018-07-28T03:27:24.035Z,10.23
2018-07-28T03:29:53.195Z,8.47
2018-07-28T03:32:22.375Z,7.17
2018-07-28T03:34:51.543Z,9.13
2018-07-28T03:37:20.700Z,7.70
2018-07-28T03:39:49.859Z,9.10
2018-07-28T03:42:18.995Z,10.90
2018-07-28T03:44:48.179Z,11.40
2018-07-28T03:47:17.311Z,9.53
2018-07-28T03:49:46.335Z,9.37
2018-07-28T03:52:15.579Z,7.70
2018-07-28T03:54:44.788Z,7.30
2018-07-28T03:57:13.894Z,12.57
2018-07-28T03:59:43.160Z,9.70
2018-07-28T04:02:12.441Z,9.07
2018-07-28T04:04:41.543Z,10.73
2018-07-28T04:07:10.951Z,11.57
2018-07-28T04:09:40.054Z,9.70
2018-07-28T04:12:09.202Z,9.47
2018-07-28T04:14:38.348Z,6.60
2018-07-28T04:17:07.515Z,7.87
2018-07-28T04:19:36.621Z,9.27
2018-07-28T04:22:05.964Z,10.57
2018-07-28T04:24:35.110Z,8.07
2018-07-28T04:27:04.359Z,7.50
2018-07-28T04:29:33.557Z,7.43
2018-07-28T04:32:02.398Z,9.07
2018-07-28T04:34:31.710Z,7.03
2018-07-28T04:37:00.622Z,8.33
2018-07-28T04:39:29.681Z,6.50
2018-07-28T04:41:58.719Z,7.57
2018-07-28T04:44:27.839Z,8.20
2018-07-28T04:46:56.999Z,9.20
2018-07-28T04:49:26.149Z,7.10
2018-07-28T04:51:55.318Z,8.23
2018-07-28T04:54:24.431Z,8.60
2018-07-28T04:56:53.611Z,10.80
2018-07-28T04:59:22.845Z,6.57
2018-07-28T05:01:52.027Z,6.28
2018-07-28T05:04:21.310Z,6.73
2018-07-28T05:06:50.535Z,9.47
2018-07-28T05:09:19.778Z,8.37
2018-07-28T05:11:49.016Z,7.53
2018-07-28T05:14:18.147Z,8.27
2018-07-28T05:16:47.352Z,7.33
2018-07-28T05:19:16.566Z,5.87
2018-07-28T05:21:45.816Z,6.37
2018-07-28T05:24:15.018Z,6.87
2018-07-28T05:26:44.130Z,8.80
2018-07-28T05:29:13.327Z,6.23
2018-07-28T05:31:42.430Z,8.37
2018-07-28T05:34:11.776Z,8.80
2018-07-28T05:36:40.970Z,8.73
2018-07-28T05:39:12.161Z,7.20
2018-07-28T05:41:41.458Z,6.93
2018-07-28T05:44:10.591Z,6.80
2018-07-28T05:46:39.859Z,8.67
2018-07-28T05:49:09.061Z,6.93
2018-07-28T05:51:38.184Z,9.33
2018-07-28T05:54:07.407Z,7.10
2018-07-28T05:56:36.568Z,6.87
2018-07-28T05:59:05.766Z,6.67
2018-07-28T06:01:34.890Z,7.43
2018-07-28T06:04:04.081Z,9.30
2018-07-28T06:06:33.339Z,6.97
2018-07-28T06:09:02.556Z,8.77
2018-07-28T06:11:31.680Z,5.73
2018-07-28T06:14:00.858Z,9.97
2018-07-28T06:16:29.974Z,9.70
2018-07-28T06:18:59.176Z,11.60
2018-07-28T06:21:28.775Z,20.97
2018-07-28T06:23:57.964Z,11.03
2018-07-28T06:26:27.136Z,14.63
2018-07-28T06:28:56.551Z,13.53
2018-07-28T06:31:25.783Z,11.40
2018-07-28T06:33:54.999Z,10.00
2018-07-28T06:36:24.226Z,9.40
2018-07-28T06:38:53.438Z,12.30
2018-07-28T06:41:22.592Z,9.50
2018-07-28T06:43:51.867Z,7.40
2018-07-28T06:46:20.989Z,8.93
2018-07-28T06:48:49.344Z,11.13
2018-07-28T06:51:18.491Z,9.10
2018-07-28T06:53:47.689Z,13.33
2018-07-28T06:56:16.762Z,7.70
2018-07-28T06:58:46.056Z,11.93
2018-07-28T07:01:15.259Z,13.60
2018-07-28T07:03:44.379Z,10.40
2018-07-28T07:06:13.562Z,10.00
2018-07-28T07:08:42.826Z,9.67
2018-07-28T07:11:11.849Z,12.80
2018-07-28T07:13:41.551Z,9.63
2018-07-28T07:16:11.672Z,8.33
2018-07-28T07:18:40.883Z,8.57
2018-07-28T07:21:10.228Z,12.37
2018-07-28T07:23:39.403Z,9.97
2018-07-28T07:26:08.628Z,11.63
2018-07-28T07:28:37.810Z,13.83
2018-07-28T07:31:06.928Z,11.70
2018-07-28T07:33:36.041Z,12.20
2018-07-28T07:36:05.292Z,10.03
2018-07-28T07:38:34.404Z,13.13
2018-07-28T07:41:04.074Z,10.07
2018-07-28T07:43:33.278Z,10.70
2018-07-28T07:46:02.586Z,10.80
2018-07-28T07:48:32.120Z,11.27
2018-07-28T07:51:01.361Z,9.57
2018-07-28T07:53:30.610Z,9.10
2018-07-28T07:55:59.951Z,15.57
2018-07-28T07:58:29.230Z,10.33
2018-07-28T08:00:58.514Z,11.83
2018-07-28T08:03:27.703Z,11.30
2018-07-28T08:05:57.023Z,12.97
2018-07-28T08:08:26.311Z,10.20
2018-07-28T08:10:55.527Z,11.00
2018-07-28T08:13:24.581Z,10.50
2018-07-28T08:15:53.784Z,10.03
2018-07-28T08:18:23.199Z,10.95
2018-07-28T08:20:52.509Z,7.57
2018-07-28T08:23:21.797Z,8.77
2018-07-28T08:25:50.967Z,10.17
2018-07-28T08:28:20.188Z,9.50
2018-07-28T08:30:49.387Z,11.93
2018-07-28T08:33:18.757Z,9.50
2018-07-28T08:35:47.890Z,7.90
2018-07-28T08:38:17.035Z,7.77
2018-07-28T08:40:46.901Z,9.13
2018-07-28T08:43:16.169Z,13.00
2018-07-28T08:45:45.451Z,9.70
2018-07-28T08:48:14.710Z,11.17
2018-07-28T08:50:43.938Z,9.60
2018-07-28T08:53:13.170Z,8.90
2018-07-28T08:55:42.620Z,11.00
2018-07-28T08:58:11.778Z,9.87
2018-07-28T09:00:40.991Z,8.13
2018-07-28T09:03:10.214Z,8.60
2018-07-28T09:05:39.413Z,8.30
2018-07-28T09:08:08.716Z,9.37
2018-07-28T09:10:37.986Z,7.83
2018-07-28T09:13:07.188Z,7.33
2018-07-28T09:15:36.335Z,10.67
2018-07-28T09:18:05.540Z,10.90
2018-07-28T09:20:34.700Z,7.97
2018-07-28T09:23:03.835Z,9.87
2018-07-28T09:25:51.760Z,10.67
2018-07-28T09:28:21.160Z,10.17
2018-07-28T09:30:50.460Z,7.20
2018-07-28T09:33:19.684Z,5.87
2018-07-28T09:35:48.923Z,6.57
2018-07-28T09:38:18.061Z,9.23
2018-07-28T09:40:47.256Z,7.73
2018-07-28T09:43:16.718Z,7.67
2018-07-28T09:45:45.995Z,7.43
2018-07-28T09:48:15.292Z,5.90
2018-07-28T09:50:44.536Z,6.97
2018-07-28T09:53:13.758Z,6.00
2018-07-28T09:55:42.920Z,6.23
2018-07-28T09:58:12.109Z,7.07
2018-07-28T10:00:46.677Z,6.17
2018-07-28T10:03:15.860Z,7.53
2018-07-28T10:05:45.244Z,5.97
2018-07-28T10:08:14.381Z,6.30
2018-07-28T10:10:43.966Z,7.40
2018-07-28T10:13:13.349Z,7.50
2018-07-28T10:15:42.558Z,7.20
2018-07-28T10:18:11.815Z,6.60
2018-07-28T10:20:41.221Z,6.17
2018-07-28T10:23:10.496Z,7.17
2018-07-28T10:25:39.713Z,7.10
2018-07-28T10:28:09.224Z,6.90
2018-07-28T10:30:38.352Z,8.67
2018-07-28T10:33:07.596Z,7.13
2018-07-28T10:35:36.807Z,8.20
2018-07-28T10:38:06.206Z,7.20
2018-07-28T10:40:35.302Z,8.60
2018-07-28T10:43:04.639Z,8.60
2018-07-28T10:45:33.973Z,10.90
2018-07-28T10:48:03.219Z,8.43
2018-07-28T10:50:32.445Z,6.50
2018-07-28T10:53:01.569Z,6.40
2018-07-28T10:55:30.907Z,7.43
2018-07-28T10:58:00.937Z,7.23
2018-07-28T11:00:30.394Z,9.87
2018-07-28T11:02:59.428Z,8.40
2018-07-28T11:05:29.090Z,6.30
2018-07-28T11:07:58.327Z,7.10
2018-07-28T11:10:27.242Z,6.77
2018-07-28T11:12:56.367Z,7.60
2018-07-28T11:15:25.654Z,7.77
2018-07-28T11:17:54.795Z,7.50
2018-07-28T11:20:23.934Z,7.40
2018-07-28T11:22:53.150Z,7.83
2018-07-28T11:25:22.261Z,7.50
2018-07-28T11:27:51.553Z,7.53
2018-07-28T11:30:21.672Z,9.63
2018-07-28T11:33:07.780Z,6.90
2018-07-28T11:35:54.081Z,10.00
2018-07-28T11:38:40.391Z,7.90
2018-07-28T11:41:26.752Z,7.97
2018-07-28T11:44:13.397Z,7.20
2018-07-28T11:46:42.683Z,7.30
2018-07-28T11:49:11.814Z,8.03
2018-07-28T11:51:41.194Z,6.80
2018-07-28T11:54:10.584Z,5.97
2018-07-28T11:56:39.823Z,6.53
2018-07-28T11:59:09.397Z,11.30
2018-07-28T12:01:38.704Z,6.53
2018-07-28T12:04:07.797Z,6.83
2018-07-28T12:06:37.097Z,6.23
2018-07-28T12:09:08.258Z,6.58
2018-07-28T12:11:37.448Z,6.50
2018-07-28T12:14:06.583Z,6.67
2018-07-28T12:16:35.887Z,6.70
2018-07-28T12:19:05.129Z,6.90
2018-07-28T12:21:34.275Z,6.23
2018-07-28T12:24:03.801Z,7.27
2018-07-28T12:26:32.946Z,7.30
2018-07-28T12:29:02.076Z,7.13
2018-07-28T12:31:31.282Z,7.43
2018-07-28T12:34:00.415Z,6.50
2018-07-28T12:36:29.355Z,8.40
2018-07-28T12:38:58.470Z,6.87
2018-07-28T12:41:27.636Z,7.60
2018-07-28T12:43:56.783Z,6.87
2018-07-28T12:46:25.995Z,6.63
2018-07-28T12:48:55.171Z,5.90
2018-07-28T12:51:24.271Z,6.47
2018-07-28T12:53:53.713Z,6.17
2018-07-28T12:56:22.854Z,6.13
2018-07-28T12:58:52.244Z,5.53
2018-07-28T13:01:22.019Z,6.03
2018-07-28T13:03:51.211Z,8.13
2018-07-28T13:06:20.326Z,6.27
2018-07-28T13:08:49.498Z,6.03
2018-07-28T13:11:18.752Z,6.57
2018-07-28T13:13:47.871Z,7.13
2018-07-28T13:16:17.020Z,7.07
2018-07-28T13:18:46.168Z,6.47
2018-07-28T13:21:15.363Z,5.63
2018-07-28T13:23:44.669Z,6.67
2018-07-28T13:26:13.856Z,5.77
2018-07-28T13:28:43.020Z,5.47
2018-07-28T13:31:12.270Z,4.90
2018-07-28T13:33:41.831Z,5.73
2018-07-28T13:36:11.067Z,6.77
2018-07-28T13:38:40.397Z,5.17
2018-07-28T13:41:09.705Z,4.50
2018-07-28T13:43:38.888Z,4.53
2018-07-28T13:46:08.191Z,4.80
2018-07-28T13:48:37.407Z,4.50
2018-07-28T13:51:07.662Z,4.90
2018-07-28T13:53:36.929Z,5.30
2018-07-28T13:56:06.195Z,4.62
2018-07-28T13:58:35.521Z,4.83
2018-07-28T14:01:04.881Z,4.10
2018-07-28T14:03:34.042Z,5.03
2018-07-28T14:06:03.250Z,4.93
2018-07-28T14:08:32.436Z,6.13
2018-07-28T14:11:01.867Z,6.47
2018-07-28T14:13:31.061Z,5.43
2018-07-28T14:16:00.294Z,5.23
2018-07-28T14:18:29.606Z,5.10
2018-07-28T14:20:58.664Z,4.80
2018-07-28T14:23:27.932Z,5.47
2018-07-28T14:25:57.085Z,4.93
2018-07-28T14:28:26.366Z,4.90
2018-07-28T14:30:55.610Z,5.90
2018-07-28T14:33:24.983Z,5.77
2018-07-28T14:35:54.221Z,6.30
2018-07-28T14:38:23.378Z,5.85
2018-07-28T14:40:52.571Z,5.50
2018-07-28T14:43:21.789Z,5.15
2018-07-28T14:45:51.235Z,5.03
2018-07-28T14:48:20.418Z,4.67
2018-07-28T14:50:49.750Z,5.13
2018-07-28T14:53:19.057Z,4.73
2018-07-28T14:55:48.263Z,5.30
2018-07-28T14:58:17.568Z,6.20
2018-07-28T15:00:46.868Z,4.67
2018-07-28T15:03:16.138Z,4.47
2018-07-28T15:05:45.338Z,5.17
2018-07-28T15:08:14.661Z,5.77
2018-07-28T15:10:43.831Z,5.40
2018-07-28T15:13:13.098Z,7.43
2018-07-28T15:15:42.343Z,7.77
2018-07-28T15:18:11.751Z,8.40
2018-07-28T15:20:41.053Z,4.83
2018-07-28T15:23:10.330Z,5.57
2018-07-28T15:25:39.615Z,5.07
2018-07-28T15:28:08.855Z,4.73
2018-07-28T15:30:38.180Z,5.00
2018-07-28T15:33:07.313Z,4.77
2018-07-28T15:35:38.316Z,4.70
2018-07-28T15:38:07.652Z,5.40
2018-07-28T15:40:37.019Z,4.43
2018-07-28T15:43:06.368Z,5.10
2018-07-28T15:45:35.638Z,4.73
2018-07-28T15:48:05.203Z,4.30
2018-07-28T15:50:34.475Z,3.80
2018-07-28T15:53:03.797Z,4.80
2018-07-28T15:55:33.147Z,4.03
2018-07-28T15:58:02.442Z,3.73
2018-07-28T16:00:31.711Z,3.40
2018-07-28T16:03:01.120Z,4.93
2018-07-28T16:05:30.517Z,4.23
2018-07-28T16:07:59.779Z,3.40
2018-07-28T16:10:29.213Z,3.13
2018-07-28T16:12:58.503Z,7.67
2018-07-28T16:15:27.855Z,3.17
2018-07-28T16:17:57.223Z,3.27
2018-07-28T16:20:26.515Z,3.00
2018-07-28T16:22:55.745Z,3.80
2018-07-28T16:25:24.968Z,3.93
2018-07-28T16:27:54.268Z,3.60
2018-07-28T16:30:23.563Z,3.60
2018-07-28T16:32:52.860Z,4.10
2018-07-28T16:35:22.112Z,3.03
2018-07-28T16:37:51.535Z,3.40
2018-07-28T16:40:20.955Z,3.70
2018-07-28T16:42:50.343Z,4.30
2018-07-28T16:45:20.605Z,3.63
2018-07-28T16:47:49.773Z,3.83
2018-07-28T16:50:19.107Z,4.90
2018-07-28T16:52:48.508Z,3.87
2018-07-28T16:55:17.788Z,4.07
2018-07-28T16:57:47.086Z,4.22
2018-07-28T17:00:18.014Z,4.43
2018-07-28T17:02:47.520Z,3.60
2018-07-28T17:05:16.960Z,4.57
2018-07-28T17:07:46.150Z,4.93
2018-07-28T17:10:15.515Z,3.10
2018-07-28T17:12:44.860Z,5.93
2018-07-28T17:15:14.263Z,4.57
2018-07-28T17:17:43.512Z,6.80
2018-07-28T17:20:12.916Z,3.37
2018-07-28T17:22:42.307Z,5.70
2018-07-28T17:25:11.380Z,6.27
2018-07-28T17:27:40.670Z,5.00
2018-07-28T17:30:10.684Z,3.97
2018-07-28T17:32:40.167Z,3.23
2018-07-28T17:35:09.412Z,4.90
2018-07-28T17:37:38.741Z,3.90
2018-07-28T17:40:08.083Z,5.60
2018-07-28T17:42:37.324Z,4.00
2018-07-28T17:45:07.515Z,4.80
2018-07-28T17:47:36.852Z,2.77
2018-07-28T17:50:06.510Z,3.17
2018-07-28T17:52:35.763Z,3.93
2018-07-28T17:55:05.187Z,4.25
2018-07-28T17:57:34.632Z,5.53
2018-07-28T18:00:04.039Z,6.57
2018-07-28T18:02:33.204Z,3.07
2018-07-28T18:05:02.621Z,3.70
2018-07-28T18:07:31.944Z,4.03
2018-07-28T18:10:01.233Z,3.97
2018-07-28T18:12:30.490Z,6.07
2018-07-28T18:14:59.752Z,5.87
2018-07-28T18:17:29.100Z,5.00
2018-07-28T18:19:58.402Z,3.80
2018-07-28T18:22:27.628Z,3.27
2018-07-28T18:24:57.003Z,5.43
2018-07-28T18:27:26.347Z,5.73
2018-07-28T18:29:55.607Z,4.67
2018-07-28T18:32:25.091Z,4.57
2018-07-28T18:34:54.391Z,5.90
2018-07-28T18:37:23.775Z,4.17
2018-07-28T18:39:53.477Z,5.63
2018-07-28T18:42:22.817Z,4.63
2018-07-28T18:44:52.230Z,5.27
2018-07-28T18:47:21.580Z,4.00
2018-07-28T18:49:51.140Z,7.20
2018-07-28T18:52:20.520Z,7.10
2018-07-28T18:54:49.788Z,5.00
2018-07-28T18:57:19.330Z,5.33
2018-07-28T18:59:48.381Z,5.30
2018-07-28T19:02:17.614Z,3.70
2018-07-28T19:04:46.916Z,5.97
2018-07-28T19:07:16.142Z,5.80
2018-07-28T19:09:50.870Z,4.97
2018-07-28T19:13:23.113Z,5.07
2018-07-28T19:15:52.356Z,4.87
2018-07-28T19:18:26.984Z,3.90
2018-07-28T19:20:56.173Z,5.30
2018-07-28T19:23:31.922Z,4.03
2018-07-28T19:26:01.170Z,4.37
2018-07-28T19:28:35.707Z,4.67
2018-07-28T19:31:05.006Z,4.63
2018-07-28T19:33:34.078Z,4.60
2018-07-28T19:36:08.647Z,6.13
2018-07-28T19:38:37.995Z,5.47
2018-07-28T19:41:07.761Z,7.03
2018-07-28T19:43:37.155Z,6.50
2018-07-28T19:46:06.395Z,5.97
2018-07-28T19:48:35.575Z,3.73
2018-07-28T19:51:04.566Z,4.97
2018-07-28T19:53:33.811Z,5.63
2018-07-28T19:56:03.049Z,6.77
2018-07-28T19:58:32.302Z,5.77
2018-07-28T20:01:01.443Z,5.77
2018-07-28T20:03:30.675Z,6.83
2018-07-28T20:06:00.904Z,4.30
2018-07-28T20:08:30.080Z,5.90
2018-07-28T20:10:59.426Z,10.77
2018-07-28T20:13:28.625Z,5.07
2018-07-28T20:15:57.765Z,4.70
2018-07-28T20:18:27.023Z,5.87
2018-07-28T20:20:56.387Z,5.07
2018-07-28T20:23:25.672Z,5.67
2018-07-28T20:25:54.846Z,6.03
2018-07-28T20:28:24.187Z,4.47
2018-07-28T20:30:53.404Z,7.20
2018-07-28T20:33:22.544Z,7.10
2018-07-28T20:35:51.929Z,7.17
2018-07-28T20:38:21.496Z,5.97
2018-07-28T20:40:50.699Z,5.30
2018-07-28T20:43:19.733Z,6.85
2018-07-28T20:45:48.860Z,6.17
2018-07-28T20:48:18.137Z,8.13
2018-07-28T20:50:47.255Z,6.30
2018-07-28T20:53:16.440Z,4.93
2018-07-28T20:55:45.616Z,5.30
2018-07-28T20:58:14.762Z,6.83
2018-07-28T21:00:43.957Z,8.97
2018-07-28T21:03:13.163Z,6.23
2018-07-28T21:05:42.457Z,10.70
2018-07-28T21:08:11.559Z,7.43
2018-07-28T21:10:40.747Z,6.10
2018-07-28T21:13:09.999Z,6.60
2018-07-28T21:15:39.163Z,6.87
2018-07-28T21:18:08.346Z,5.10
2018-07-28T21:20:37.622Z,5.87
2018-07-28T21:23:06.881Z,7.67
2018-07-28T21:25:35.859Z,5.53
2018-07-28T21:28:05.226Z,4.20
2018-07-28T21:30:34.220Z,8.53
2018-07-28T21:33:03.418Z,6.87
2018-07-28T21:35:32.616Z,7.63
2018-07-28T21:38:01.755Z,5.70
2018-07-28T21:40:30.995Z,7.10
2018-07-28T21:42:59.963Z,5.23
2018-07-28T21:45:29.085Z,7.60
2018-07-28T21:47:58.308Z,6.83
2018-07-28T21:50:27.434Z,4.23
2018-07-28T21:52:56.576Z,5.92
2018-07-28T21:55:25.756Z,7.03
2018-07-28T21:57:54.967Z,5.70
2018-07-28T22:00:24.011Z,5.67
2018-07-28T22:02:53.250Z,7.37
2018-07-28T22:05:22.411Z,7.57
2018-07-28T22:07:52.061Z,9.17
2018-07-28T22:10:21.430Z,6.43
2018-07-28T22:12:50.710Z,9.03
2018-07-28T22:15:20.111Z,9.33
2018-07-28T22:17:49.266Z,8.67
2018-07-28T22:20:18.515Z,7.77
2018-07-28T22:22:47.644Z,8.37
2018-07-28T22:25:17.026Z,9.83
2018-07-28T22:27:46.177Z,10.03
2018-07-28T22:30:16.158Z,9.07
2018-07-28T22:32:45.415Z,8.00
2018-07-28T22:35:14.639Z,5.50
2018-07-28T22:37:43.877Z,7.20
2018-07-28T22:40:13.084Z,9.60
2018-07-28T22:42:49.093Z,10.87
2018-07-28T22:45:20.071Z,7.63
2018-07-28T22:47:49.514Z,9.10
2018-07-28T22:50:18.738Z,17.77
2018-07-28T22:52:47.892Z,11.97
2018-07-28T22:55:17.223Z,13.83
2018-07-28T22:57:46.242Z,6.17
2018-07-28T23:00:17.259Z,16.33
2018-07-28T23:02:46.689Z,12.70
2018-07-28T23:05:15.979Z,11.50
2018-07-28T23:07:45.218Z,18.97
2018-07-28T23:10:14.379Z,7.30
2018-07-28T23:12:43.551Z,7.27
2018-07-28T23:15:12.830Z,6.37
2018-07-28T23:17:42.605Z,8.37
2018-07-28T23:20:11.744Z,10.87
2018-07-28T23:22:40.938Z,8.17
2018-07-28T23:25:10.273Z,11.13
2018-07-28T23:27:39.437Z,24.20
2018-07-28T23:30:12.130Z,13.10
2018-07-28T23:32:41.390Z,11.47
2018-07-28T23:35:10.518Z,16.87
2018-07-28T23:37:39.743Z,8.83
2018-07-28T23:40:09.069Z,12.07
2018-07-28T23:42:38.164Z,8.67
2018-07-28T23:45:07.438Z,10.00
2018-07-28T23:47:36.606Z,7.10
2018-07-28T23:50:05.807Z,10.70
2018-07-28T23:52:35.089Z,9.90
2018-07-28T23:55:04.235Z,6.77
2018-07-28T23:57:33.351Z,10.60
